Time;durP1;ratioP1;P1;durP2;ratioP2;P2;SDS_P1;SDS_P2;PMS_P1;PMS_P2;Temp;Humidity;BMP_temperature;BMP_pressure;BME280_temperature;BME280_humidity;BME280_pressure;Samples;Min_cycle;Max_cycle;Signal;HPM_P1;HPM_P2
2023/09/25 00:00:49;;;;;;;5.37;2.67;;;;;;;;;;5035752;28;20432;-71
2023/09/25 00:03:14;;;;;;;5.10;3.00;;;;;;;;;;5033632;28;20049;-71
2023/09/25 00:05:39;;;;;;;8.43;3.00;;;;;;;;;;5035730;28;20017;-71
2023/09/25 00:08:05;;;;;;;5.57;3.00;;;;;;;;;;5035256;28;20036;-71
2023/09/25 00:10:31;;;;;;;5.97;2.90;;;;;;;;;;5035268;28;20020;-72
2023/09/25 00:12:56;;;;;;;5.40;2.80;;;;;;;;;;5035328;28;20036;-72
2023/09/25 00:15:22;;;;;;;5.97;2.97;;;;;;;;;;5035703;28;20021;-71
2023/09/25 00:17:47;;;;;;;5.87;3.07;;;;;;;;;;5035570;28;20024;-71
2023/09/25 00:20:12;;;;;;;9.20;3.20;;;;;;;;;;5035568;28;20032;-71
2023/09/25 00:22:38;;;;;;;6.57;2.90;;;;;;;;;;5035608;28;20057;-71
2023/09/25 00:25:04;;;;;;;5.50;2.90;;;;;;;;;;5035456;28;20025;-70
2023/09/25 00:27:31;;;;;;;7.40;3.23;;;;;;;;;;5035525;28;20079;-71
2023/09/25 00:29:57;;;;;;;6.07;3.13;;;;;;;;;;5035280;28;20056;-71
2023/09/25 00:32:22;;;;;;;5.40;3.30;;;;;;;;;;5033704;28;20426;-71
2023/09/25 00:34:47;;;;;;;9.00;3.40;;;;;;;;;;5030135;28;20034;-71
2023/09/25 00:37:13;;;;;;;6.53;3.27;;;;;;;;;;5029299;28;20037;-71
2023/09/25 00:39:38;;;;;;;5.67;2.90;;;;;;;;;;5026524;28;20051;-70
2023/09/25 00:42:03;;;;;;;6.00;3.17;;;;;;;;;;5025990;28;20056;-71
2023/09/25 00:44:28;;;;;;;5.47;3.10;;;;;;;;;;5033625;28;20018;-71
2023/09/25 00:46:54;;;;;;;4.97;3.07;;;;;;;;;;5035145;28;20017;-71
2023/09/25 00:49:19;;;;;;;6.30;3.67;;;;;;;;;;5033093;28;20101;-71
2023/09/25 00:51:44;;;;;;;5.57;3.40;;;;;;;;;;5031804;28;20049;-70
2023/09/25 00:54:10;;;;;;;5.20;3.27;;;;;;;;;;5032628;28;20025;-70
2023/09/25 00:56:36;;;;;;;6.67;3.57;;;;;;;;;;5035111;28;20036;-70
2023/09/25 00:59:01;;;;;;;8.67;3.30;;;;;;;;;;5034845;28;20466;-71
2023/09/25 01:04:29;;;;;;;6.87;3.40;;;;;;;;;;5090442;22;20080;-60
2023/09/25 01:06:54;;;;;;;6.87;3.40;;;;;;;;;;5114600;28;20028;-60
2023/09/25 01:09:19;;;;;;;6.03;3.10;;;;;;;;;;5112784;28;20012;-60
2023/09/25 01:11:44;;;;;;;5.57;3.00;;;;;;;;;;5115095;28;20496;-60
2023/09/25 01:14:10;;;;;;;5.93;3.30;;;;;;;;;;5115244;28;20045;-61
2023/09/25 01:16:36;;;;;;;6.77;3.37;;;;;;;;;;5114899;28;20156;-61
2023/09/25 01:19:01;;;;;;;7.27;3.40;;;;;;;;;;5114930;28;20023;-60
2023/09/25 01:21:26;;;;;;;6.10;3.47;;;;;;;;;;5115047;28;20019;-60
2023/09/25 01:23:52;;;;;;;6.67;3.40;;;;;;;;;;5110999;28;20020;-61
2023/09/25 01:26:17;;;;;;;5.27;3.47;;;;;;;;;;5114146;28;20065;-60
2023/09/25 01:28:42;;;;;;;7.43;3.67;;;;;;;;;;5115204;28;20027;-60
2023/09/25 01:31:08;;;;;;;6.33;3.43;;;;;;;;;;5114459;28;20520;-61
2023/09/25 01:33:33;;;;;;;6.77;3.83;;;;;;;;;;5114845;28;20051;-61
2023/09/25 01:35:58;;;;;;;5.67;3.70;;;;;;;;;;5110972;28;20030;-62
2023/09/25 01:38:24;;;;;;;6.57;3.83;;;;;;;;;;5114622;28;20024;-61
2023/09/25 01:40:49;;;;;;;5.60;3.77;;;;;;;;;;5114711;28;20020;-61
2023/09/25 01:43:14;;;;;;;6.50;4.00;;;;;;;;;;5114757;28;20084;-60
2023/09/25 01:45:39;;;;;;;6.77;3.70;;;;;;;;;;5113651;28;20042;-60
2023/09/25 01:48:05;;;;;;;6.40;3.47;;;;;;;;;;5114386;28;20035;-60
2023/09/25 01:50:30;;;;;;;6.50;3.57;;;;;;;;;;5114480;28;20035;-59
2023/09/25 01:53:03;;;;;;;5.70;3.30;;;;;;;;;;5114162;28;20490;-60
2023/09/25 01:55:35;;;;;;;7.30;3.57;;;;;;;;;;5113039;28;20041;-61
2023/09/25 01:58:00;;;;;;;7.03;3.97;;;;;;;;;;5112170;28;20019;-61
2023/09/25 02:00:26;;;;;;;6.97;4.20;;;;;;;;;;5114119;28;20016;-60
2023/09/25 02:02:51;;;;;;;6.20;3.90;;;;;;;;;;5113871;28;20030;-60
2023/09/25 02:05:16;;;;;;;8.30;3.87;;;;;;;;;;5098442;28;20081;-60
2023/09/25 02:07:42;;;;;;;6.53;4.07;;;;;;;;;;5094566;28;20020;-61
2023/09/25 02:10:07;;;;;;;7.50;4.00;;;;;;;;;;5094522;28;20046;-61
2023/09/25 02:12:33;;;;;;;7.17;4.30;;;;;;;;;;5094317;28;20020;-61
2023/09/25 02:15:00;;;;;;;7.20;4.33;;;;;;;;;;5092733;28;20035;-60
2023/09/25 02:17:27;;;;;;;7.60;4.50;;;;;;;;;;5102511;28;20023;-61
2023/09/25 02:19:52;;;;;;;6.50;4.07;;;;;;;;;;5113579;27;20421;-61
2023/09/25 02:22:18;;;;;;;9.37;4.70;;;;;;;;;;5113287;28;20043;-61
2023/09/25 02:24:43;;;;;;;8.80;4.70;;;;;;;;;;5093311;28;20456;-61
2023/09/25 02:27:08;;;;;;;8.47;4.90;;;;;;;;;;5094400;28;20391;-61
2023/09/25 02:29:33;;;;;;;8.30;4.73;;;;;;;;;;5094347;28;20020;-61
2023/09/25 02:31:59;;;;;;;6.87;4.40;;;;;;;;;;5106117;28;20042;-61
2023/09/25 02:34:24;;;;;;;7.27;4.33;;;;;;;;;;5113261;28;20398;-60
2023/09/25 02:36:49;;;;;;;8.80;4.87;;;;;;;;;;5112472;28;20068;-61
2023/09/25 02:39:15;;;;;;;9.07;4.67;;;;;;;;;;5098648;28;20026;-61
2023/09/25 02:41:40;;;;;;;10.23;4.63;;;;;;;;;;5102445;28;20053;-61
2023/09/25 02:44:05;;;;;;;8.87;4.60;;;;;;;;;;5110746;28;20062;-61
2023/09/25 02:46:31;;;;;;;7.30;5.00;;;;;;;;;;5094074;28;20410;-62
2023/09/25 02:48:56;;;;;;;8.93;4.50;;;;;;;;;;5090841;28;20020;-60
2023/09/25 02:51:21;;;;;;;6.70;4.23;;;;;;;;;;5090577;28;20024;-60
2023/09/25 02:53:46;;;;;;;8.33;5.30;;;;;;;;;;5093574;28;20095;-60
2023/09/25 02:56:12;;;;;;;10.20;5.00;;;;;;;;;;5093846;28;20459;-61
2023/09/25 02:58:37;;;;;;;10.13;4.97;;;;;;;;;;5093915;28;20352;-60
2023/09/25 03:01:02;;;;;;;9.50;5.37;;;;;;;;;;5093160;28;20463;-60
2023/09/25 03:03:28;;;;;;;11.10;5.47;;;;;;;;;;5093072;28;20391;-61
2023/09/25 03:05:53;;;;;;;9.07;5.13;;;;;;;;;;5092432;28;20032;-61
2023/09/25 03:08:18;;;;;;;9.07;5.23;;;;;;;;;;5093514;28;20114;-60
2023/09/25 03:10:43;;;;;;;8.60;4.87;;;;;;;;;;5101198;28;20116;-61
2023/09/25 03:13:09;;;;;;;9.53;5.20;;;;;;;;;;5112201;28;20026;-60
2023/09/25 03:15:34;;;;;;;7.97;4.87;;;;;;;;;;5108282;28;20008;-60
2023/09/25 03:17:59;;;;;;;8.37;4.63;;;;;;;;;;5098075;28;20352;-59
2023/09/25 03:20:24;;;;;;;10.20;5.00;;;;;;;;;;5108348;28;20383;-62
2023/09/25 03:22:50;;;;;;;6.47;4.40;;;;;;;;;;5095075;28;20361;-60
2023/09/25 03:25:15;;;;;;;6.90;4.07;;;;;;;;;;5091424;28;20024;-61
2023/09/25 03:27:40;;;;;;;9.53;4.43;;;;;;;;;;5093540;28;20026;-59
2023/09/25 03:30:06;;;;;;;7.90;4.17;;;;;;;;;;5089760;28;20028;-63
2023/09/25 03:32:31;;;;;;;8.27;4.57;;;;;;;;;;5087845;28;20422;-60
2023/09/25 03:34:56;;;;;;;7.90;4.50;;;;;;;;;;5101555;28;20009;-62
2023/09/25 03:37:22;;;;;;;6.17;4.23;;;;;;;;;;5101562;28;20387;-61
2023/09/25 03:39:50;;;;;;;6.17;3.63;;;;;;;;;;5098950;28;20012;-62
2023/09/25 03:42:16;;;;;;;7.37;4.00;;;;;;;;;;5092238;28;20091;-60
2023/09/25 03:44:41;;;;;;;8.37;4.10;;;;;;;;;;5092724;28;20091;-61
2023/09/25 03:47:06;;;;;;;10.30;4.77;;;;;;;;;;5090253;28;20020;-60
2023/09/25 03:49:31;;;;;;;6.40;4.07;;;;;;;;;;5092998;28;20020;-61
2023/09/25 03:51:56;;;;;;;10.43;4.37;;;;;;;;;;5098404;28;20035;-61
2023/09/25 03:54:22;;;;;;;8.10;3.93;;;;;;;;;;5091408;28;20021;-61
2023/09/25 03:56:47;;;;;;;9.13;4.43;;;;;;;;;;5093023;28;20073;-62
2023/09/25 03:59:13;;;;;;;6.57;4.17;;;;;;;;;;5096433;28;20065;-60
2023/09/25 04:01:38;;;;;;;6.87;4.10;;;;;;;;;;5096290;28;20063;-61
2023/09/25 04:04:04;;;;;;;6.50;4.20;;;;;;;;;;5092331;28;20075;-61
2023/09/25 04:06:29;;;;;;;7.60;4.30;;;;;;;;;;5100297;28;20081;-61
2023/09/25 04:08:54;;;;;;;7.07;4.43;;;;;;;;;;5107509;28;20020;-59
2023/09/25 04:11:19;;;;;;;6.10;3.93;;;;;;;;;;5112035;28;20034;-60
2023/09/25 04:13:46;;;;;;;11.47;4.60;;;;;;;;;;5104060;28;20107;-60
2023/09/25 04:16:13;;;;;;;7.73;4.17;;;;;;;;;;5111361;28;20103;-60
2023/09/25 04:18:39;;;;;;;12.80;4.63;;;;;;;;;;5111730;28;20020;-60
2023/09/25 04:21:07;;;;;;;10.93;4.60;;;;;;;;;;5111992;28;20031;-62
2023/09/25 04:23:33;;;;;;;8.03;4.60;;;;;;;;;;5111829;28;20046;-60
2023/09/25 04:26:00;;;;;;;10.50;4.93;;;;;;;;;;5111687;28;20024;-62
2023/09/25 04:28:28;;;;;;;7.87;4.60;;;;;;;;;;5096265;28;20046;-60
2023/09/25 04:30:55;;;;;;;14.80;4.83;;;;;;;;;;5096012;28;20031;-63
2023/09/25 04:33:20;;;;;;;12.20;4.67;;;;;;;;;;5096120;28;20024;-61
2023/09/25 04:35:46;;;;;;;9.60;4.40;;;;;;;;;;5094044;28;20016;-60
2023/09/25 04:38:12;;;;;;;8.17;4.33;;;;;;;;;;5093381;28;20480;-61
2023/09/25 04:40:37;;;;;;;9.17;4.30;;;;;;;;;;5096409;28;20020;-61
2023/09/25 04:43:03;;;;;;;7.33;4.20;;;;;;;;;;5093126;28;20052;-62
2023/09/25 04:45:29;;;;;;;7.83;5.20;;;;;;;;;;5095964;28;20027;-61
2023/09/25 04:47:55;;;;;;;6.90;4.60;;;;;;;;;;5092673;28;20074;-60
2023/09/25 04:50:21;;;;;;;7.93;4.10;;;;;;;;;;5096176;28;20056;-61
2023/09/25 04:52:46;;;;;;;6.40;3.70;;;;;;;;;;5096202;28;20083;-60
2023/09/25 04:55:14;;;;;;;6.40;3.90;;;;;;;;;;5115203;28;20086;-62
2023/09/25 04:57:40;;;;;;;6.90;3.90;;;;;;;;;;5094195;27;20024;-61
2023/09/25 05:00:21;;;;;;;12.93;4.73;;;;;;;;;;5090909;28;20105;-61
2023/09/25 05:02:48;;;;;;;6.77;4.00;;;;;;;;;;5106912;28;20024;-59
2023/09/25 05:05:13;;;;;;;6.23;4.13;;;;;;;;;;5113966;28;20066;-60
2023/09/25 05:07:41;;;;;;;6.70;3.97;;;;;;;;;;5114499;28;20016;-60
2023/09/25 05:10:07;;;;;;;6.20;4.17;;;;;;;;;;5115080;28;20023;-60
2023/09/25 05:12:32;;;;;;;7.63;3.80;;;;;;;;;;5114617;28;20441;-60
2023/09/25 05:14:57;;;;;;;6.37;4.13;;;;;;;;;;5114425;28;20030;-60
2023/09/25 05:17:22;;;;;;;6.70;3.60;;;;;;;;;;5105167;28;20034;-61
2023/09/25 05:19:48;;;;;;;6.67;3.77;;;;;;;;;;5099396;28;20024;-60
2023/09/25 05:22:13;;;;;;;6.57;4.00;;;;;;;;;;5105211;28;20141;-60
2023/09/25 05:24:38;;;;;;;5.90;3.90;;;;;;;;;;5113979;28;20454;-62
2023/09/25 05:27:04;;;;;;;8.73;4.13;;;;;;;;;;5103515;28;20027;-61
2023/09/25 05:29:29;;;;;;;8.27;4.20;;;;;;;;;;5097097;28;20015;-61
2023/09/25 05:31:54;;;;;;;7.60;4.57;;;;;;;;;;5114295;28;20020;-61
2023/09/25 05:34:19;;;;;;;7.17;4.10;;;;;;;;;;5093753;28;20020;-61
2023/09/25 05:36:45;;;;;;;6.10;3.73;;;;;;;;;;5088439;28;20073;-61
2023/09/25 05:39:10;;;;;;;8.33;3.90;;;;;;;;;;5094329;28;20020;-60
2023/09/25 05:41:36;;;;;;;8.07;4.23;;;;;;;;;;5102272;28;20019;-61
2023/09/25 05:44:01;;;;;;;6.20;4.17;;;;;;;;;;5112025;28;20028;-60
2023/09/25 05:46:26;;;;;;;7.37;4.07;;;;;;;;;;5089367;28;20081;-59
2023/09/25 05:48:53;;;;;;;5.93;3.60;;;;;;;;;;5093889;28;20387;-61
2023/09/25 05:51:18;;;;;;;7.90;4.20;;;;;;;;;;5109998;28;20038;-62
2023/09/25 05:53:44;;;;;;;6.20;3.83;;;;;;;;;;5110500;28;20024;-62
2023/09/25 05:56:09;;;;;;;6.60;4.10;;;;;;;;;;5095884;28;20028;-61
2023/09/25 05:58:35;;;;;;;8.77;4.07;;;;;;;;;;5094349;28;20489;-60
2023/09/25 06:01:00;;;;;;;9.33;3.93;;;;;;;;;;5091690;28;20456;-59
2023/09/25 06:03:26;;;;;;;7.30;3.70;;;;;;;;;;5090604;28;20050;-60
2023/09/25 06:05:51;;;;;;;5.27;3.53;;;;;;;;;;5094395;28;20414;-60
2023/09/25 06:08:16;;;;;;;6.03;3.67;;;;;;;;;;5101471;28;20028;-61
2023/09/25 06:10:44;;;;;;;6.67;3.70;;;;;;;;;;5094425;28;20028;-61
2023/09/25 06:13:09;;;;;;;6.70;3.60;;;;;;;;;;5097746;28;20379;-59
2023/09/25 06:15:37;;;;;;;7.30;3.80;;;;;;;;;;5101633;28;20020;-60
2023/09/25 06:18:06;;;;;;;5.60;3.43;;;;;;;;;;5113111;28;20447;-59
2023/09/25 06:20:35;;;;;;;6.30;3.33;;;;;;;;;;5100137;28;20016;-59
2023/09/25 06:23:01;;;;;;;5.23;3.00;;;;;;;;;;5094283;28;20028;-59
2023/09/25 06:25:29;;;;;;;6.77;3.10;;;;;;;;;;5090305;28;20020;-58
2023/09/25 06:27:54;;;;;;;3.97;2.33;;;;;;;;;;5094269;28;20031;-59
2023/09/25 06:30:20;;;;;;;5.30;2.67;;;;;;;;;;5094244;28;20071;-59
2023/09/25 06:32:45;;;;;;;5.57;2.93;;;;;;;;;;5093376;28;20479;-59
2023/09/25 06:35:11;;;;;;;4.43;2.80;;;;;;;;;;5093626;28;20048;-58
2023/09/25 06:37:36;;;;;;;3.70;2.55;;;;;;;;;;5094069;28;20024;-59
2023/09/25 06:40:09;;;;;;;4.97;2.63;;;;;;;;;;5093711;28;20020;-60
2023/09/25 06:42:34;;;;;;;3.95;2.55;;;;;;;;;;5082171;28;20020;-60
2023/09/25 06:45:00;;;;;;;4.82;2.38;;;;;;;;;;5089510;28;20517;-60
2023/09/25 06:47:25;;;;;;;4.03;2.15;;;;;;;;;;5076652;28;20103;-60
2023/09/25 06:49:50;;;;;;;5.18;2.58;;;;;;;;;;5075738;28;20118;-61
2023/09/25 06:52:16;;;;;;;4.03;2.13;;;;;;;;;;5072608;28;20031;-65
2023/09/25 06:54:41;;;;;;;4.93;2.47;;;;;;;;;;5085701;28;20464;-65
2023/09/25 06:57:06;;;;;;;4.70;2.35;;;;;;;;;;5093449;28;20468;-64
2023/09/25 06:59:34;;;;;;;5.40;2.20;;;;;;;;;;5094829;28;20103;-65
2023/09/25 07:01:59;;;;;;;5.18;2.13;;;;;;;;;;5077436;28;20079;-65
2023/09/25 07:04:24;;;;;;;3.78;1.92;;;;;;;;;;5082216;28;20040;-64
2023/09/25 07:06:50;;;;;;;6.30;2.00;;;;;;;;;;5073336;28;20031;-63
2023/09/25 07:09:15;;;;;;;3.22;2.00;;;;;;;;;;5073290;28;20100;-62
2023/09/25 07:11:41;;;;;;;4.55;1.88;;;;;;;;;;5072320;28;20056;-62
2023/09/25 07:14:06;;;;;;;4.32;1.80;;;;;;;;;;5073271;28;20041;-62
2023/09/25 07:16:31;;;;;;;3.42;1.70;;;;;;;;;;5073394;28;20021;-63
2023/09/25 07:18:57;;;;;;;2.70;1.50;;;;;;;;;;5072897;28;20393;-62
2023/09/25 07:21:22;;;;;;;3.40;1.70;;;;;;;;;;5073425;28;20028;-63
2023/09/25 07:23:47;;;;;;;3.22;1.85;;;;;;;;;;5073243;28;20054;-62
2023/09/25 07:26:15;;;;;;;3.97;1.92;;;;;;;;;;5073210;28;20028;-62
2023/09/25 07:28:41;;;;;;;5.13;2.10;;;;;;;;;;5072838;28;20028;-62
2023/09/25 07:31:06;;;;;;;6.20;2.85;;;;;;;;;;5089904;28;20042;-63
2023/09/25 07:33:31;;;;;;;4.43;1.92;;;;;;;;;;5093063;28;20016;-64
2023/09/25 07:35:57;;;;;;;4.70;2.00;;;;;;;;;;5093025;28;20073;-63
2023/09/25 07:38:23;;;;;;;3.45;1.90;;;;;;;;;;5093032;28;20019;-63
2023/09/25 07:40:48;;;;;;;4.32;1.70;;;;;;;;;;5092802;28;20024;-62
2023/09/25 07:43:19;;;;;;;3.30;1.50;;;;;;;;;;5093004;28;20431;-63
2023/09/25 07:45:44;;;;;;;3.25;1.60;;;;;;;;;;5077026;28;20104;-62
2023/09/25 07:48:11;;;;;;;3.50;1.65;;;;;;;;;;5082913;28;20054;-62
2023/09/25 07:50:38;;;;;;;2.65;1.40;;;;;;;;;;5092453;28;20036;-62
2023/09/25 07:53:07;;;;;;;2.47;1.30;;;;;;;;;;5092897;28;20056;-63
2023/09/25 07:55:38;;;;;;;2.85;1.20;;;;;;;;;;5092822;28;20027;-64
2023/09/25 07:58:04;;;;;;;4.15;1.40;;;;;;;;;;5092525;28;20492;-62
2023/09/25 08:00:36;;;;;;;2.72;1.40;;;;;;;;;;5093138;28;20058;-62
2023/09/25 08:03:02;;;;;;;3.67;1.33;;;;;;;;;;5092795;28;20032;-62
2023/09/25 08:05:28;;;;;;;2.95;1.30;;;;;;;;;;5096345;28;20111;-61
2023/09/25 08:07:53;;;;;;;2.20;1.20;;;;;;;;;;5096322;28;20043;-61
2023/09/25 08:10:19;;;;;;;3.15;1.30;;;;;;;;;;5096883;28;20043;-63
2023/09/25 08:12:44;;;;;;;2.90;1.15;;;;;;;;;;5096528;28;20016;-63
2023/09/25 08:15:10;;;;;;;4.53;1.40;;;;;;;;;;5096619;28;20024;-63
2023/09/25 08:17:36;;;;;;;3.17;1.40;;;;;;;;;;5096470;28;20012;-63
2023/09/25 08:20:13;;;;;;;2.63;1.23;;;;;;;;;;5091339;28;20026;-64
2023/09/25 08:22:38;;;;;;;4.00;1.30;;;;;;;;;;5088155;28;20457;-63
2023/09/25 08:25:04;;;;;;;2.42;1.20;;;;;;;;;;5090801;28;20025;-63
2023/09/25 08:27:29;;;;;;;2.55;1.20;;;;;;;;;;5096301;28;20023;-64
2023/09/25 08:29:54;;;;;;;4.55;1.55;;;;;;;;;;5096508;28;20091;-63
2023/09/25 08:32:19;;;;;;;4.53;1.50;;;;;;;;;;5096236;28;20108;-63
2023/09/25 08:34:45;;;;;;;4.53;1.40;;;;;;;;;;5095273;28;20069;-63
2023/09/25 08:37:11;;;;;;;5.05;1.70;;;;;;;;;;5087043;28;20031;-63
2023/09/25 08:39:36;;;;;;;10.48;1.90;;;;;;;;;;5079919;28;20021;-63
2023/09/25 08:42:01;;;;;;;5.90;1.45;;;;;;;;;;5075452;28;20028;-63
2023/09/25 08:44:27;;;;;;;8.90;1.38;;;;;;;;;;5075455;28;20059;-62
2023/09/25 08:46:52;;;;;;;2.30;1.10;;;;;;;;;;5075631;28;20024;-64
2023/09/25 08:49:18;;;;;;;4.13;1.10;;;;;;;;;;5075637;28;20078;-64
2023/09/25 08:51:43;;;;;;;4.65;1.85;;;;;;;;;;5088305;28;20024;-64
2023/09/25 08:54:09;;;;;;;4.90;1.73;;;;;;;;;;5096134;28;20024;-64
2023/09/25 08:56:34;;;;;;;9.45;1.70;;;;;;;;;;5095361;28;20062;-64
2023/09/25 08:58:59;;;;;;;22.25;12.15;;;;;;;;;;5095843;28;20460;-64
2023/09/25 09:01:25;;;;;;;5.75;1.88;;;;;;;;;;5094111;28;20077;-66
2023/09/25 09:03:51;;;;;;;4.80;1.42;;;;;;;;;;5095240;28;20135;-64
2023/09/25 09:06:16;;;;;;;13.45;2.53;;;;;;;;;;5095895;28;20093;-65
2023/09/25 09:08:46;;;;;;;3.20;1.27;;;;;;;;;;5095763;28;20046;-65
2023/09/25 09:11:13;;;;;;;4.05;1.10;;;;;;;;;;5095714;28;20028;-65
2023/09/25 09:13:46;;;;;;;3.05;1.10;;;;;;;;;;5095401;28;20024;-61
2023/09/25 09:16:12;;;;;;;15.70;7.70;;;;;;;;;;5095283;28;20071;-61
2023/09/25 09:18:37;;;;;;;5.55;1.83;;;;;;;;;;5094947;28;20020;-61
2023/09/25 09:21:03;;;;;;;1.70;0.98;;;;;;;;;;5095215;28;20023;-60
2023/09/25 09:23:39;;;;;;;6.03;1.20;;;;;;;;;;5095524;28;20384;-61
2023/09/25 09:26:04;;;;;;;4.60;1.00;;;;;;;;;;5095405;28;20410;-62
2023/09/25 09:28:31;;;;;;;2.53;1.00;;;;;;;;;;5095094;28;20074;-61
2023/09/25 09:30:58;;;;;;;2.50;0.90;;;;;;;;;;5095280;28;20020;-60
2023/09/25 09:33:29;;;;;;;3.13;1.00;;;;;;;;;;5094665;28;20529;-62
2023/09/25 09:35:54;;;;;;;2.58;1.00;;;;;;;;;;5095303;28;20016;-61
2023/09/25 09:38:19;;;;;;;1.83;0.93;;;;;;;;;;5094671;28;20096;-62
2023/09/25 09:40:45;;;;;;;3.88;1.20;;;;;;;;;;5094431;28;20468;-61
2023/09/25 09:43:10;;;;;;;1.60;0.90;;;;;;;;;;5093565;28;20074;-61
2023/09/25 09:45:36;;;;;;;3.50;1.23;;;;;;;;;;5094733;28;20353;-61
2023/09/25 09:48:02;;;;;;;3.50;1.40;;;;;;;;;;5094954;28;20020;-61
2023/09/25 09:50:28;;;;;;;5.43;1.10;;;;;;;;;;5094125;28;20357;-60
2023/09/25 09:52:54;;;;;;;2.35;1.10;;;;;;;;;;5094098;28;20023;-61
2023/09/25 09:55:20;;;;;;;5.72;1.20;;;;;;;;;;5094627;28;20460;-60
2023/09/25 09:57:45;;;;;;;9.82;1.58;;;;;;;;;;5094368;28;20020;-59
2023/09/25 10:00:11;;;;;;;3.45;1.00;;;;;;;;;;5094832;28;20353;-61
2023/09/25 10:02:37;;;;;;;3.13;1.20;;;;;;;;;;5090623;28;20031;-60
2023/09/25 10:05:03;;;;;;;2.95;1.17;;;;;;;;;;5081354;28;20492;-60
2023/09/25 10:07:29;;;;;;;2.60;1.27;;;;;;;;;;5098933;28;20096;-61
2023/09/25 10:09:58;;;;;;;4.43;1.10;;;;;;;;;;5095507;28;20019;-61
2023/09/25 10:12:42;;;;;;;2.50;1.10;;;;;;;;;;5094387;28;20020;-61
2023/09/25 10:15:08;;;;;;;2.75;1.10;;;;;;;;;;5094220;28;20016;-61
2023/09/25 10:17:38;;;;;;;3.55;1.30;;;;;;;;;;5094064;28;20069;-60
2023/09/25 10:20:04;;;;;;;3.97;1.30;;;;;;;;;;5094123;28;20027;-61
2023/09/25 10:22:30;;;;;;;3.35;0.95;;;;;;;;;;5094550;28;20027;-66
2023/09/25 10:25:04;;;;;;;4.50;1.13;;;;;;;;;;5094345;28;20367;-66
2023/09/25 10:27:31;;;;;;;2.53;1.10;;;;;;;;;;5093775;28;20471;-66
2023/09/25 10:30:05;;;;;;;3.38;1.30;;;;;;;;;;5093508;28;20016;-67
2023/09/25 10:32:31;;;;;;;4.30;1.10;;;;;;;;;;5093944;28;20016;-67
2023/09/25 10:34:56;;;;;;;2.67;1.23;;;;;;;;;;5093866;28;20020;-66
2023/09/25 10:37:21;;;;;;;3.15;1.10;;;;;;;;;;5089549;28;20092;-66
2023/09/25 10:39:49;;;;;;;3.60;1.20;;;;;;;;;;5073744;28;20033;-65
2023/09/25 10:42:14;;;;;;;6.00;1.42;;;;;;;;;;5073514;28;20025;-66
2023/09/25 10:44:40;;;;;;;2.10;1.00;;;;;;;;;;5073444;28;20020;-66
2023/09/25 10:47:09;;;;;;;2.85;1.10;;;;;;;;;;5073623;28;20020;-67
2023/09/25 10:49:35;;;;;;;4.00;1.25;;;;;;;;;;5072997;28;20035;-68
2023/09/25 10:52:00;;;;;;;4.07;1.10;;;;;;;;;;5073244;28;20024;-67
2023/09/25 10:54:26;;;;;;;3.95;1.10;;;;;;;;;;5072964;28;20016;-67
2023/09/25 10:56:52;;;;;;;2.83;1.10;;;;;;;;;;5074294;28;20012;-67
2023/09/25 10:59:17;;;;;;;2.33;1.05;;;;;;;;;;5073227;28;20021;-67
2023/09/25 11:01:42;;;;;;;1.88;1.00;;;;;;;;;;5073279;28;20024;-68
2023/09/25 11:04:08;;;;;;;3.38;1.20;;;;;;;;;;5073045;28;20094;-67
2023/09/25 11:06:34;;;;;;;2.95;1.10;;;;;;;;;;5073048;28;20073;-68
2023/09/25 11:09:06;;;;;;;3.15;1.20;;;;;;;;;;5073152;28;20414;-67
2023/09/25 11:11:31;;;;;;;4.63;1.27;;;;;;;;;;5071969;28;20025;-68
2023/09/25 11:13:57;;;;;;;2.67;1.13;;;;;;;;;;5073060;28;20066;-68
2023/09/25 11:16:23;;;;;;;2.60;1.20;;;;;;;;;;5073334;28;20020;-66
2023/09/25 11:18:49;;;;;;;2.80;1.10;;;;;;;;;;5072998;28;20021;-68
2023/09/25 11:21:15;;;;;;;2.65;1.10;;;;;;;;;;5073035;28;20017;-67
2023/09/25 11:23:42;;;;;;;3.03;1.10;;;;;;;;;;5073183;28;20031;-66
2023/09/25 11:26:10;;;;;;;3.72;1.05;;;;;;;;;;5072595;28;20021;-66
2023/09/25 11:28:36;;;;;;;3.35;1.27;;;;;;;;;;5072683;28;20025;-66
2023/09/25 11:31:01;;;;;;;3.10;1.38;;;;;;;;;;5083511;28;20460;-66
2023/09/25 11:33:28;;;;;;;4.00;1.15;;;;;;;;;;5080808;28;20108;-62
2023/09/25 11:35:54;;;;;;;3.53;1.40;;;;;;;;;;5070795;28;20017;-63
2023/09/25 11:38:28;;;;;;;2.90;1.20;;;;;;;;;;5081684;28;20078;-61
2023/09/25 11:40:53;;;;;;;2.35;0.90;;;;;;;;;;5096399;28;20069;-63
2023/09/25 11:43:18;;;;;;;2.65;1.00;;;;;;;;;;5080171;28;20033;-61
2023/09/25 11:45:48;;;;;;;2.80;1.10;;;;;;;;;;5078300;28;20050;-63
2023/09/25 11:48:16;;;;;;;3.10;1.00;;;;;;;;;;5087382;28;20472;-61
2023/09/25 11:50:42;;;;;;;2.53;1.00;;;;;;;;;;5090953;28;20031;-61
2023/09/25 11:53:07;;;;;;;4.22;1.20;;;;;;;;;;5094972;28;20020;-63
2023/09/25 11:55:33;;;;;;;3.53;1.25;;;;;;;;;;5087374;28;20020;-61
2023/09/25 11:57:58;;;;;;;8.70;1.77;;;;;;;;;;5094231;28;20360;-63
2023/09/25 12:00:27;;;;;;;4.15;1.08;;;;;;;;;;5083705;28;20391;-63
2023/09/25 12:02:53;;;;;;;2.35;0.93;;;;;;;;;;5075495;28;20020;-64
2023/09/25 12:05:20;;;;;;;3.15;1.23;;;;;;;;;;5094790;28;20035;-63
2023/09/25 12:07:47;;;;;;;2.80;1.17;;;;;;;;;;5096601;28;20105;-62
2023/09/25 12:10:12;;;;;;;3.17;1.10;;;;;;;;;;5096829;28;20516;-61
2023/09/25 12:12:39;;;;;;;3.08;1.00;;;;;;;;;;5096814;28;20087;-62
2023/09/25 12:15:05;;;;;;;3.85;1.05;;;;;;;;;;5096360;28;20103;-62
2023/09/25 12:17:31;;;;;;;2.53;1.00;;;;;;;;;;5110149;28;20026;-61
2023/09/25 12:19:57;;;;;;;4.47;1.13;;;;;;;;;;5117067;28;20011;-63
2023/09/25 12:22:23;;;;;;;4.78;1.20;;;;;;;;;;5116773;28;20027;-63
2023/09/25 12:24:48;;;;;;;4.07;1.27;;;;;;;;;;5104106;28;20046;-63
2023/09/25 12:27:13;;;;;;;2.95;1.20;;;;;;;;;;5094643;28;20012;-62
2023/09/25 12:29:39;;;;;;;2.65;1.10;;;;;;;;;;5096085;28;20024;-61
2023/09/25 12:32:04;;;;;;;2.72;1.10;;;;;;;;;;5096083;28;20023;-62
2023/09/25 12:34:29;;;;;;;2.55;1.15;;;;;;;;;;5087681;28;20024;-61
2023/09/25 12:36:55;;;;;;;5.38;1.27;;;;;;;;;;5090528;28;20017;-62
2023/09/25 12:39:20;;;;;;;3.28;1.15;;;;;;;;;;5095772;28;20016;-62
2023/09/25 12:41:45;;;;;;;3.00;1.10;;;;;;;;;;5107866;28;20020;-62
2023/09/25 12:44:10;;;;;;;2.75;1.10;;;;;;;;;;5093056;28;20052;-67
2023/09/25 12:46:36;;;;;;;4.03;1.35;;;;;;;;;;5091484;28;20061;-66
2023/09/25 12:49:01;;;;;;;2.75;1.10;;;;;;;;;;5095211;28;20077;-67
2023/09/25 12:51:26;;;;;;;3.08;1.20;;;;;;;;;;5094797;28;20497;-68
2023/09/25 12:53:52;;;;;;;2.42;1.00;;;;;;;;;;5095915;28;20095;-68
2023/09/25 12:56:17;;;;;;;3.13;1.10;;;;;;;;;;5094621;28;20096;-67
2023/09/25 12:58:42;;;;;;;5.07;1.40;;;;;;;;;;5082177;28;20406;-68
2023/09/25 13:01:07;;;;;;;3.08;1.30;;;;;;;;;;5095756;28;20024;-68
2023/09/25 13:03:33;;;;;;;4.43;1.48;;;;;;;;;;5088940;28;20036;-68
2023/09/25 13:05:58;;;;;;;3.28;1.17;;;;;;;;;;5081108;28;20036;-68
2023/09/25 13:08:23;;;;;;;2.88;1.00;;;;;;;;;;5078585;28;20063;-68
2023/09/25 13:10:51;;;;;;;4.43;1.17;;;;;;;;;;5090797;28;20024;-67
2023/09/25 13:13:17;;;;;;;3.53;1.13;;;;;;;;;;5094811;28;20023;-67
2023/09/25 13:15:42;;;;;;;3.30;1.20;;;;;;;;;;5085091;28;20357;-68
2023/09/25 13:18:07;;;;;;;2.90;1.13;;;;;;;;;;5083042;28;20040;-68
2023/09/25 13:20:32;;;;;;;3.45;1.30;;;;;;;;;;5082991;28;20020;-67
2023/09/25 13:22:58;;;;;;;3.40;1.20;;;;;;;;;;5083079;28;20032;-67
2023/09/25 13:25:24;;;;;;;2.83;1.20;;;;;;;;;;5078563;28;20131;-67
2023/09/25 13:27:49;;;;;;;3.15;1.20;;;;;;;;;;5094921;28;20019;-67
2023/09/25 13:30:16;;;;;;;5.72;1.00;;;;;;;;;;5094681;28;20016;-66
2023/09/25 13:32:41;;;;;;;2.28;1.00;;;;;;;;;;5091119;28;20024;-67
2023/09/25 13:35:09;;;;;;;3.45;1.20;;;;;;;;;;5080530;28;20519;-67
2023/09/25 13:37:34;;;;;;;3.85;1.17;;;;;;;;;;5085203;28;20055;-68
2023/09/25 13:40:00;;;;;;;3.60;1.15;;;;;;;;;;5082592;28;20044;-68
2023/09/25 13:42:26;;;;;;;3.88;1.20;;;;;;;;;;5088753;28;20024;-67
2023/09/25 13:44:52;;;;;;;2.92;1.10;;;;;;;;;;5088016;28;20017;-68
2023/09/25 13:47:17;;;;;;;2.58;1.08;;;;;;;;;;5090735;28;20054;-67
2023/09/25 13:49:43;;;;;;;2.50;0.98;;;;;;;;;;5086123;28;20059;-66
2023/09/25 13:52:09;;;;;;;3.60;1.13;;;;;;;;;;5094027;28;20023;-68
2023/09/25 13:54:34;;;;;;;5.55;1.25;;;;;;;;;;5087006;28;20362;-62
2023/09/25 13:56:59;;;;;;;3.03;1.13;;;;;;;;;;5103946;28;20011;-62
2023/09/25 13:59:25;;;;;;;3.63;1.02;;;;;;;;;;5104853;28;20104;-63
2023/09/25 14:01:50;;;;;;;3.08;1.40;;;;;;;;;;5100358;28;20068;-62
2023/09/25 14:04:15;;;;;;;4.50;1.27;;;;;;;;;;5094767;28;20093;-61
2023/09/25 14:06:41;;;;;;;3.97;1.10;;;;;;;;;;5096703;28;20048;-63
2023/09/25 14:09:08;;;;;;;3.45;1.10;;;;;;;;;;5100508;28;20020;-62
2023/09/25 14:11:33;;;;;;;2.30;1.10;;;;;;;;;;5104190;28;20020;-61
2023/09/25 14:13:59;;;;;;;3.92;1.13;;;;;;;;;;5102427;28;20020;-62
2023/09/25 14:16:24;;;;;;;5.20;1.30;;;;;;;;;;5101913;28;20348;-62
2023/09/25 14:18:49;;;;;;;3.42;1.30;;;;;;;;;;5099313;28;20074;-63
2023/09/25 14:21:17;;;;;;;3.08;1.30;;;;;;;;;;5098601;28;20024;-63
2023/09/25 14:23:42;;;;;;;4.53;1.17;;;;;;;;;;5074750;28;20070;-62
2023/09/25 14:26:07;;;;;;;5.20;1.20;;;;;;;;;;5087745;28;20426;-63
2023/09/25 14:28:33;;;;;;;3.28;1.27;;;;;;;;;;5079898;28;20392;-61
2023/09/25 14:30:58;;;;;;;3.10;1.38;;;;;;;;;;5085183;28;20020;-61
2023/09/25 14:33:23;;;;;;;3.88;1.33;;;;;;;;;;5094230;28;20023;-62
2023/09/25 14:35:49;;;;;;;3.53;1.20;;;;;;;;;;5093825;28;20050;-61
2023/09/25 14:38:14;;;;;;;4.07;1.10;;;;;;;;;;5082274;28;20099;-60